Time;durP1;ratioP1;P1;durP2;ratioP2;P2;SDS_P1;SDS_P2;PMS_P1;PMS_P2;Temp;Humidity;BMP_temperature;BMP_pressure;BME280_temperature;BME280_humidity;BME280_pressure;Samples;Min_cycle;Max_cycle;Signal;HPM_P1;HPM_P2
2022/04/28 00:00:11;;;;;;;14.90;11.43;;;10.00;99.90;;;;;;5057321;28;20509;-79
2022/04/28 00:02:40;;;;;;;14.00;10.37;;;9.90;99.90;;;;;;5057408;28;20447;-78
2022/04/28 00:05:09;;;;;;;13.27;10.30;;;10.00;92.50;;;;;;5056059;28;20504;-78
2022/04/28 00:07:37;;;;;;;13.97;10.87;;;9.90;1.00;;;;;;5054059;28;20554;-77
2022/04/28 00:10:06;;;;;;;14.83;10.83;;;10.00;99.90;;;;;;5054330;28;20490;-79
2022/04/28 00:12:33;;;;;;;13.93;9.67;;;10.00;99.90;;;;;;5054195;28;20529;-78
2022/04/28 00:15:00;;;;;;;14.30;11.13;;;10.00;99.90;;;;;;5053902;28;20474;-77
2022/04/28 00:17:26;;;;;;;18.73;10.40;;;10.10;99.90;;;;;;5054584;28;20873;-77
2022/04/28 00:19:54;;;;;;;11.60;9.53;;;9.90;99.90;;;;;;5055114;28;20435;-78
2022/04/28 00:22:23;;;;;;;14.77;10.77;;;10.00;99.90;;;;;;5061621;28;20453;-77
2022/04/28 00:24:50;;;;;;;14.40;10.60;;;10.20;99.90;;;;;;5070387;28;20466;-77
2022/04/28 00:27:17;;;;;;;13.50;10.37;;;10.10;1.00;;;;;;5068140;28;20496;-78
2022/04/28 00:29:44;;;;;;;21.03;16.03;;;10.20;1.00;;;;;;5070609;28;20476;-78
2022/04/28 00:32:11;;;;;;;14.67;11.20;;;10.20;99.90;;;;;;5064670;28;20420;-79
2022/04/28 00:34:37;;;;;;;17.47;11.47;;;10.10;22.30;;;;;;5061613;28;20519;-79
2022/04/28 00:37:09;;;;;;;15.70;11.30;;;10.20;1.00;;;;;;5059669;28;20476;-78
2022/04/28 00:39:36;;;;;;;16.17;11.57;;;10.20;1.00;;;;;;5059984;28;20765;-79
2022/04/28 00:42:07;;;;;;;12.27;9.97;;;10.30;99.90;;;;;;5061833;28;20488;-78
2022/04/28 00:44:33;;;;;;;15.67;11.57;;;10.40;8.70;;;;;;5066566;28;20473;-79
2022/04/28 00:47:00;;;;;;;16.17;10.87;;;10.30;1.00;;;;;;5067768;28;20484;-78
2022/04/28 00:52:12;;;;;;;14.53;10.77;;;10.20;1.00;;;;;;5060862;28;20434;-77
2022/04/28 00:54:39;;;;;;;12.90;10.00;;;10.10;1.00;;;;;;5059431;28;20886;-79
2022/04/28 00:57:07;;;;;;;14.60;10.60;;;10.20;99.90;;;;;;5059032;28;20474;-78
2022/04/28 00:59:38;;;;;;;11.43;9.70;;;;;;;;;;5058706;28;20456;-78
2022/04/28 01:02:05;;;;;;;11.23;9.60;;;10.10;99.90;;;;;;5060145;28;20464;-79
2022/04/28 01:04:32;;;;;;;14.20;10.87;;;10.20;99.90;;;;;;5071243;28;20535;-78
2022/04/28 01:06:58;;;;;;;15.33;10.07;;;10.20;99.90;;;;;;5070924;28;20491;-78
2022/04/28 01:09:26;;;;;;;13.30;10.07;;;10.20;99.90;;;;;;5072054;28;20441;-78
2022/04/28 01:11:53;;;;;;;12.73;10.07;;;10.10;1.00;;;;;;5061343;28;20437;-78
2022/04/28 01:14:20;;;;;;;15.87;10.33;;;10.10;1.00;;;;;;5060326;28;20493;-79
2022/04/28 01:16:46;;;;;;;14.17;10.40;;;10.00;1.00;;;;;;5063176;28;21002;-80
2022/04/28 01:19:13;;;;;;;14.30;10.13;;;10.00;1.00;;;;;;5064892;28;20512;-79
2022/04/28 01:21:41;;;;;;;14.60;10.57;;;10.00;99.90;;;;;;5063540;28;20465;-79
2022/04/28 01:24:07;;;;;;;16.40;11.27;;;10.00;1.00;;;;;;5063798;28;20466;-79
2022/04/28 01:26:36;;;;;;;15.10;10.30;;;10.00;1.00;;;;;;5066216;28;20442;-79
2022/04/28 01:29:03;;;;;;;11.20;8.97;;;9.90;27.00;;;;;;5062967;28;20452;-79
2022/04/28 01:31:29;;;;;;;15.07;10.60;;;9.90;99.90;;;;;;5062752;28;20469;-79
2022/04/28 01:33:56;;;;;;;14.23;10.60;;;9.90;99.90;;;;;;5062797;28;20497;-79
2022/04/28 01:36:23;;;;;;;15.93;9.60;;;9.50;1.00;;;;;;5061586;28;20480;-79
2022/04/28 01:38:51;;;;;;;13.57;10.80;;;9.90;99.90;;;;;;5061409;28;20450;-78
2022/04/28 01:41:17;;;;;;;14.37;10.40;;;9.80;99.90;;;;;;5062691;28;20879;-79
2022/04/28 01:43:45;;;;;;;16.10;9.90;;;9.90;99.90;;;;;;5063134;28;20528;-78
2022/04/28 01:46:12;;;;;;;16.07;12.10;;;9.80;99.90;;;;;;5061230;28;20436;-79
2022/04/28 01:48:38;;;;;;;14.20;10.03;;;9.80;99.90;;;;;;5058902;28;20570;-79
2022/04/28 01:56:35;;;;;;;13.90;9.83;;;9.80;99.90;;;;;;5075349;28;20398;-79
2022/04/28 01:59:01;;;;;;;11.20;9.60;;;9.90;14.50;;;;;;5076545;28;20460;-78
2022/04/28 02:01:28;;;;;;;13.77;10.23;;;9.80;99.90;;;;;;5077535;28;20441;-78
2022/04/28 02:03:54;;;;;;;13.10;9.40;;;9.80;99.90;;;;;;5067351;28;20509;-78
2022/04/28 02:06:21;;;;;;;10.00;9.00;;;9.80;89.90;;;;;;5062144;28;20484;-79
2022/04/28 02:08:47;;;;;;;12.80;9.63;;;9.70;87.10;;;;;;5071200;28;20486;-79
2022/04/28 02:11:17;;;;;;;11.27;8.67;;;9.70;83.00;;;;;;5068164;28;20445;-79
2022/04/28 02:13:44;;;;;;;10.03;8.17;;;;;;;;;;5060197;28;20506;-79
2022/04/28 02:16:11;;;;;;;11.80;8.90;;;9.60;1.00;;;;;;5061877;28;20474;-79
2022/04/28 02:18:38;;;;;;;10.63;9.30;;;9.60;1.00;;;;;;5061852;28;20421;-78
2022/04/28 02:21:04;;;;;;;10.77;7.90;;;9.60;7.00;;;;;;5059059;28;20456;-79
2022/04/28 02:23:31;;;;;;;14.33;9.03;;;9.90;71.90;;;;;;5075762;28;20430;-76
2022/04/28 02:25:57;;;;;;;11.07;9.30;;;9.60;1.00;;;;;;5068077;28;20442;-78
2022/04/28 02:28:26;;;;;;;11.10;8.57;;;9.60;1.00;;;;;;5068111;28;20487;-79
2022/04/28 02:30:52;;;;;;;14.47;8.00;;;9.50;1.00;;;;;;5065660;28;20477;-79
2022/04/28 02:33:19;;;;;;;10.10;7.90;;;9.70;99.90;;;;;;5063034;28;20568;-78
2022/04/28 02:35:46;;;;;;;8.90;7.60;;;9.50;99.90;;;;;;5061896;28;20476;-79
2022/04/28 02:38:13;;;;;;;11.10;9.00;;;9.50;99.90;;;;;;5059242;28;20449;-79
2022/04/28 02:40:40;;;;;;;10.53;8.57;;;9.50;99.90;;;;;;5059845;28;20485;-78
2022/04/28 02:43:06;;;;;;;13.63;8.77;;;9.40;52.40;;;;;;5062539;28;20596;-79
2022/04/28 02:45:34;;;;;;;10.37;8.87;;;9.40;99.90;;;;;;5072643;28;20524;-79
2022/04/28 02:48:01;;;;;;;9.20;7.40;;;9.50;1.00;;;;;;5076101;28;20459;-79
2022/04/28 02:50:27;;;;;;;11.20;9.00;;;9.40;99.90;;;;;;5071053;28;20420;-79
2022/04/28 02:52:54;;;;;;;9.27;8.30;;;9.30;99.90;;;;;;5065679;28;20478;-79
2022/04/28 02:55:21;;;;;;;12.53;8.77;;;9.30;99.90;;;;;;5065907;28;20432;-79
2022/04/28 02:57:47;;;;;;;9.83;8.03;;;9.30;99.90;;;;;;5058658;28;20514;-78
2022/04/28 03:00:14;;;;;;;9.53;7.63;;;9.30;99.90;;;;;;5058603;28;20889;-79
2022/04/28 03:02:42;;;;;;;9.80;8.43;;;9.30;99.90;;;;;;5059240;28;20873;-78
2022/04/28 03:05:09;;;;;;;13.20;8.90;;;9.30;1.00;;;;;;5060402;28;20489;-79
2022/04/28 03:10:49;;;;;;;12.67;7.57;;;9.20;99.90;;;;;;5058471;28;20417;-79
2022/04/28 03:13:17;;;;;;;9.77;7.63;;;9.20;99.90;;;;;;5059787;28;20496;-79
2022/04/28 03:15:43;;;;;;;9.97;7.87;;;9.20;99.90;;;;;;5060249;28;20843;-79
2022/04/28 03:18:12;;;;;;;9.10;6.97;;;9.10;99.90;;;;;;5059108;28;20443;-79
2022/04/28 03:20:38;;;;;;;13.00;8.97;;;9.10;99.90;;;;;;5058108;28;20469;-79
2022/04/28 03:23:05;;;;;;;9.80;8.63;;;9.10;99.90;;;;;;5060914;28;20500;-79
2022/04/28 03:25:32;;;;;;;10.13;7.40;;;9.10;99.90;;;;;;5060517;28;20497;-79
2022/04/28 03:27:58;;;;;;;10.17;7.97;;;9.00;1.00;;;;;;5060365;28;20477;-80
2022/04/28 03:30:25;;;;;;;8.83;7.40;;;9.00;99.90;;;;;;5064404;28;20910;-78
2022/04/28 03:32:52;;;;;;;10.20;7.27;;;9.00;99.90;;;;;;5065104;28;20455;-77
2022/04/28 03:35:20;;;;;;;12.07;7.47;;;9.00;99.90;;;;;;5066867;28;20541;-79
2022/04/28 03:37:47;;;;;;;10.27;8.10;;;8.90;99.90;;;;;;5061535;28;20445;-79
2022/04/28 03:40:14;;;;;;;10.23;7.23;;;8.90;99.90;;;;;;5061288;28;20450;-80
2022/04/28 03:42:41;;;;;;;8.17;6.70;;;8.90;95.90;;;;;;5063096;28;20467;-78
2022/04/28 03:45:09;;;;;;;11.67;7.93;;;8.80;94.60;;;;;;5072820;28;20457;-78
2022/04/28 03:47:36;;;;;;;8.40;6.73;;;8.80;99.00;;;;;;5075899;28;20448;-78
2022/04/28 03:50:03;;;;;;;11.87;7.57;;;8.80;99.90;;;;;;5075782;28;20442;-78
2022/04/28 03:52:31;;;;;;;10.57;7.90;;;8.90;98.30;;;;;;5060764;28;20631;-78
2022/04/28 03:54:58;;;;;;;12.50;9.10;;;8.90;99.90;;;;;;5058057;28;20489;-79
2022/04/28 03:57:24;;;;;;;7.47;6.70;;;8.80;99.90;;;;;;5059487;28;20442;-79
2022/04/28 03:59:51;;;;;;;13.00;8.10;;;8.80;99.90;;;;;;5060153;28;20837;-79
2022/04/28 04:02:18;;;;;;;15.73;8.67;;;8.80;99.90;;;;;;5062445;28;20449;-79
2022/04/28 04:04:44;;;;;;;18.33;7.70;;;8.70;99.90;;;;;;5060014;28;20471;-79
2022/04/28 04:07:11;;;;;;;9.00;8.07;;;8.80;99.90;;;;;;5053836;28;20478;-78
2022/04/28 04:09:39;;;;;;;11.00;8.80;;;8.80;99.90;;;;;;5054360;28;20450;-77
2022/04/28 04:12:06;;;;;;;7.90;7.00;;;8.80;99.90;;;;;;5055714;28;20445;-78
2022/04/28 04:14:33;;;;;;;8.03;7.13;;;8.90;99.90;;;;;;5055777;28;20512;-77
2022/04/28 04:17:00;;;;;;;11.13;8.60;;;8.90;99.90;;;;;;5058172;28;20847;-78
2022/04/28 04:19:26;;;;;;;10.00;7.83;;;8.90;99.90;;;;;;5058430;28;20476;-79
2022/04/28 04:21:53;;;;;;;11.50;8.50;;;8.80;99.90;;;;;;5057639;28;20488;-79
2022/04/28 04:24:19;;;;;;;10.50;7.20;;;8.90;99.90;;;;;;5057957;28;20470;-78
2022/04/28 04:26:47;;;;;;;9.13;7.23;;;8.90;80.40;;;;;;5059528;28;20465;-79
2022/04/28 04:29:14;;;;;;;12.13;7.40;;;8.80;99.90;;;;;;5056346;28;20513;-78
2022/04/28 04:34:25;;;;;;;8.53;7.03;;;9.00;70.50;;;;;;5058503;28;20447;-78
2022/04/28 04:36:51;;;;;;;12.83;8.73;;;9.00;14.50;;;;;;5058570;28;20463;-78
2022/04/28 04:39:18;;;;;;;12.80;8.80;;;9.00;1.00;;;;;;5058081;28;20476;-78
2022/04/28 04:41:44;;;;;;;12.40;8.70;;;9.10;99.90;;;;;;5060029;28;20449;-79
2022/04/28 04:44:15;;;;;;;15.17;9.03;;;9.10;1.00;;;;;;5070900;22;21210;-77
2022/04/28 04:46:43;;;;;;;14.90;9.00;;;;;;;;;;5052820;28;20431;-76
2022/04/28 04:49:10;;;;;;;12.67;9.20;;;;;;;;;;5052664;28;20460;-77
2022/04/28 04:51:37;;;;;;;10.70;8.03;;;9.50;99.90;;;;;;5052764;28;20470;-78
2022/04/28 04:54:03;;;;;;;13.20;8.90;;;9.20;1.00;;;;;;5052777;28;20465;-77
2022/04/28 04:56:30;;;;;;;15.23;10.00;;;9.20;1.00;;;;;;5052717;28;20511;-77
2022/04/28 04:58:57;;;;;;;9.93;8.70;;;9.20;1.00;;;;;;5052881;28;20459;-77
2022/04/28 05:01:24;;;;;;;12.53;8.90;;;9.20;1.00;;;;;;5052834;28;20420;-76
2022/04/28 05:03:51;;;;;;;8.47;6.47;;;9.40;99.90;;;;;;5053660;28;20488;-77
2022/04/28 05:06:18;;;;;;;11.93;8.27;;;9.30;1.00;;;;;;5055828;28;20420;-78
2022/04/28 05:08:44;;;;;;;12.97;8.90;;;9.40;1.00;;;;;;5058241;28;20477;-78
2022/04/28 05:11:11;;;;;;;11.87;7.57;;;9.40;1.00;;;;;;5057893;28;20977;-77
2022/04/28 05:13:37;;;;;;;9.20;8.30;;;9.40;99.90;;;;;;5061003;28;20445;-78
2022/04/28 05:16:05;;;;;;;11.07;8.20;;;9.60;1.00;;;;;;5061115;28;21090;-77
2022/04/28 05:18:33;;;;;;;16.67;9.83;;;9.70;1.00;;;;;;5059517;28;20973;-76
2022/04/28 05:21:00;;;;;;;10.20;8.53;;;9.80;1.00;;;;;;5058570;28;20456;-77
2022/04/28 05:23:27;;;;;;;8.67;7.40;;;9.80;1.00;;;;;;5058826;28;20520;-77
2022/04/28 05:25:53;;;;;;;13.40;8.53;;;9.90;1.00;;;;;;5059286;28;20521;-77
2022/04/28 05:28:20;;;;;;;11.73;7.57;;;10.00;1.00;;;;;;5059654;28;20658;-78
2022/04/28 05:30:47;;;;;;;10.93;8.07;;;10.40;1.00;;;;;;5058986;28;20449;-77
2022/04/28 05:33:14;;;;;;;13.40;7.27;;;10.20;1.00;;;;;;5057796;28;20567;-76
2022/04/28 05:35:42;;;;;;;9.13;7.53;;;10.20;1.00;;;;;;5057362;28;20442;-76
2022/04/28 05:38:10;;;;;;;15.07;7.57;;;10.30;1.00;;;;;;5056847;28;20420;-77
2022/04/28 05:40:39;;;;;;;11.03;7.50;;;10.30;1.00;;;;;;5056434;28;20461;-77
2022/04/28 05:45:51;;;;;;;11.23;8.33;;;10.40;1.00;;;;;;5056317;28;20880;-78
2022/04/28 05:48:19;;;;;;;13.30;7.83;;;10.50;1.00;;;;;;5055855;28;20539;-78
2022/04/28 05:50:48;;;;;;;9.63;7.83;;;10.50;1.00;;;;;;5055658;28;20496;-77
2022/04/28 05:53:15;;;;;;;15.73;9.10;;;10.60;1.00;;;;;;5055153;28;20499;-77
2022/04/28 05:55:42;;;;;;;9.60;8.40;;;10.70;1.00;;;;;;5055443;28;20974;-77
2022/04/28 05:58:09;;;;;;;10.43;8.23;;;10.70;1.00;;;;;;5057061;28;20545;-77
2022/04/28 06:00:36;;;;;;;15.50;8.60;;;10.80;1.00;;;;;;5056389;28;20449;-77
2022/04/28 06:03:03;;;;;;;14.80;8.60;;;10.80;1.00;;;;;;5056526;28;20449;-77
2022/04/28 06:05:29;;;;;;;10.10;8.07;;;11.40;1.00;;;;;;5055619;28;20551;-77
2022/04/28 06:07:57;;;;;;;10.53;7.77;;;11.30;1.00;;;;;;5055601;28;20849;-78
2022/04/28 06:10:24;;;;;;;17.47;9.10;;;11.20;1.00;;;;;;5055546;28;20452;-77
2022/04/28 06:12:51;;;;;;;12.53;9.03;;;11.10;1.00;;;;;;5055300;28;20972;-78
2022/04/28 06:15:17;;;;;;;13.80;9.03;;;11.30;1.00;;;;;;5055512;28;20548;-78
2022/04/28 06:17:44;;;;;;;10.90;8.27;;;11.30;1.00;;;;;;5055540;28;20493;-76
2022/04/28 06:20:12;;;;;;;11.97;8.30;;;11.50;1.00;;;;;;5055744;28;20905;-78
2022/04/28 06:22:39;;;;;;;8.87;7.90;;;11.40;1.00;;;;;;5055458;28;20791;-78
2022/04/28 06:25:07;;;;;;;12.30;8.07;;;11.40;1.00;;;;;;5054686;28;20465;-77
2022/04/28 06:27:34;;;;;;;12.43;7.40;;;11.30;1.00;;;;;;5055085;28;20462;-77
2022/04/28 06:30:01;;;;;;;11.10;7.90;;;11.50;1.00;;;;;;5055500;28;20477;-78
2022/04/28 06:32:27;;;;;;;11.50;7.80;;;11.50;1.00;;;;;;5054896;28;20449;-76
2022/04/28 06:34:54;;;;;;;11.90;7.70;;;11.50;1.00;;;;;;5054550;28;20995;-78
2022/04/28 06:37:21;;;;;;;14.53;7.67;;;11.50;1.00;;;;;;5055096;28;20984;-76
2022/04/28 06:39:48;;;;;;;12.80;8.20;;;11.50;1.00;;;;;;5055985;28;20541;-78
2022/04/28 06:42:16;;;;;;;10.37;9.00;;;11.20;1.00;;;;;;5056616;28;20446;-77
2022/04/28 06:44:44;;;;;;;12.60;8.87;;;11.00;1.00;;;;;;5056834;28;20480;-78
2022/04/28 06:47:11;;;;;;;11.03;9.37;;;11.00;1.00;;;;;;5057116;28;20461;-78
2022/04/28 06:49:38;;;;;;;9.97;8.40;;;11.00;1.00;;;;;;5057775;28;20602;-78
2022/04/28 06:52:05;;;;;;;10.73;8.53;;;11.20;1.00;;;;;;5055815;28;21003;-78
2022/04/28 06:54:31;;;;;;;16.60;9.13;;;11.50;1.00;;;;;;5054885;28;20474;-77
2022/04/28 06:57:02;;;;;;;12.43;8.63;;;11.70;1.00;;;;;;5055162;28;20899;-77
2022/04/28 06:59:30;;;;;;;13.13;8.83;;;11.80;1.00;;;;;;5055004;28;20465;-78
2022/04/28 07:01:57;;;;;;;15.80;9.90;;;11.90;1.00;;;;;;5055289;28;20879;-78
2022/04/28 07:04:27;;;;;;;14.23;9.13;;;12.00;1.00;;;;;;5054496;28;20509;-77
2022/04/28 07:06:53;;;;;;;13.33;10.10;;;11.90;1.00;;;;;;5054003;28;20477;-77
2022/04/28 07:09:20;;;;;;;12.70;8.80;;;12.00;1.00;;;;;;5057033;28;20576;-77
2022/04/28 07:11:46;;;;;;;12.17;9.77;;;12.30;1.00;;;;;;5055660;28;20453;-77
2022/04/28 07:14:14;;;;;;;12.37;8.60;;;12.20;1.00;;;;;;5055297;28;20848;-77
2022/04/28 07:16:43;;;;;;;14.67;9.73;;;12.30;1.00;;;;;;5054834;28;20449;-76
2022/04/28 07:19:09;;;;;;;16.10;9.90;;;12.40;1.00;;;;;;5054541;28;20446;-77
2022/04/28 07:21:36;;;;;;;12.30;9.40;;;11.90;1.00;;;;;;5056336;28;20471;-76
2022/04/28 07:24:03;;;;;;;12.87;9.17;;;11.80;1.00;;;;;;5057242;28;20462;-76
2022/04/28 07:26:30;;;;;;;11.30;8.77;;;11.90;1.00;;;;;;5056554;28;20484;-77
2022/04/28 07:28:57;;;;;;;21.90;9.47;;;12.30;1.00;;;;;;5058443;28;21027;-77
2022/04/28 07:31:24;;;;;;;10.60;8.40;;;12.30;1.00;;;;;;5059952;28;20445;-77
2022/04/28 07:33:52;;;;;;;14.40;9.37;;;12.00;1.00;;;;;;5057420;28;20456;-76
2022/04/28 07:36:19;;;;;;;15.20;8.57;;;12.30;1.00;;;;;;5054288;28;20477;-77
2022/04/28 07:38:46;;;;;;;11.03;7.40;;;12.30;1.00;;;;;;5054223;28;21017;-77
2022/04/28 07:41:14;;;;;;;11.07;8.70;;;12.50;1.00;;;;;;5053999;28;20429;-77
2022/04/28 07:43:40;;;;;;;8.70;7.80;;;12.80;1.00;;;;;;5054305;28;20442;-76
2022/04/28 07:46:07;;;;;;;11.40;8.03;;;12.70;1.00;;;;;;5053636;28;20458;-76
2022/04/28 07:48:34;;;;;;;8.03;6.53;;;12.90;1.00;;;;;;5053839;28;20481;-77
2022/04/28 07:51:03;;;;;;;13.77;7.40;;;13.20;99.90;;;;;;5054058;28;20972;-77
2022/04/28 07:53:31;;;;;;;13.30;6.57;;;13.20;99.90;;;;;;5054577;28;20452;-77
2022/04/28 07:56:14;;;;;;;10.40;6.10;;;13.20;99.90;;;;;;5053711;28;20785;-77
2022/04/28 07:58:42;;;;;;;8.00;6.90;;;13.10;99.90;;;;;;5053396;28;20434;-77
2022/04/28 08:01:09;;;;;;;14.13;8.50;;;13.00;99.90;;;;;;5053732;28;20451;-77
2022/04/28 08:03:35;;;;;;;8.17;7.37;;;13.10;99.90;;;;;;5053423;28;20941;-78
2022/04/28 08:06:04;;;;;;;12.17;7.10;;;13.00;99.90;;;;;;5060835;22;21015;-78
2022/04/28 08:08:33;;;;;;;10.07;6.00;;;;;;;;;;5053439;28;20442;-77
2022/04/28 08:11:00;;;;;;;13.93;7.47;;;;;;;;;;5053930;28;20456;-78
2022/04/28 08:13:27;;;;;;;10.97;7.60;;;13.00;99.90;;;;;;5053963;28;20445;-78
2022/04/28 08:15:54;;;;;;;8.70;7.63;;;13.10;99.90;;;;;;5053318;28;20504;-76
2022/04/28 08:18:21;;;;;;;15.83;8.90;;;13.00;1.00;;;;;;5078943;22;21163;-77
2022/04/28 08:20:48;;;;;;;14.00;6.90;;;13.20;99.90;;;;;;5063777;28;20438;-79
2022/04/28 08:23:16;;;;;;;9.97;7.40;;;13.10;1.00;;;;;;5060868;28;20473;-79
2022/04/28 08:25:42;;;;;;;10.20;7.63;;;13.20;99.90;;;;;;5057764;28;20480;-80
2022/04/28 08:28:09;;;;;;;11.03;7.33;;;;;;;;;;5058052;28;20480;-78
2022/04/28 08:30:36;;;;;;;12.70;8.20;;;;;;;;;;5063970;28;20481;-78
2022/04/28 08:33:04;;;;;;;9.90;8.90;;;13.10;1.00;;;;;;5064202;28;20442;-78
2022/04/28 08:35:32;;;;;;;10.50;8.27;;;13.50;99.90;;;;;;5063180;28;20454;-78
2022/04/28 08:37:59;;;;;;;7.67;6.97;;;13.90;1.00;;;;;;5063837;28;20449;-80
2022/04/28 08:40:27;;;;;;;7.90;6.80;;;13.90;1.00;;;;;;5062125;28;20465;-78
2022/04/28 08:42:55;;;;;;;11.67;7.40;;;13.80;99.90;;;;;;5057844;28;20962;-79
2022/04/28 08:45:28;;;;;;;9.10;6.80;;;14.00;99.90;;;;;;5057124;28;20442;-78
2022/04/28 08:47:58;;;;;;;12.73;7.27;;;13.90;1.00;;;;;;5061236;28;20422;-76
2022/04/28 08:50:24;;;;;;;11.40;8.83;;;13.70;1.00;;;;;;5060375;28;20456;-78
2022/04/28 08:52:53;;;;;;;12.13;7.67;;;13.90;99.90;;;;;;5059781;28;20441;-78
2022/04/28 08:55:20;;;;;;;9.23;7.63;;;14.10;99.90;;;;;;5061782;28;20456;-77
2022/04/28 08:57:48;;;;;;;8.90;6.83;;;14.20;99.90;;;;;;5063825;28;20497;-79
2022/04/28 09:00:16;;;;;;;8.73;7.30;;;14.20;99.90;;;;;;5059967;28;20457;-79
2022/04/28 09:02:43;;;;;;;11.23;7.63;;;14.00;1.00;;;;;;5059078;28;20452;-78
2022/04/28 09:05:10;;;;;;;17.37;7.10;;;14.20;99.90;;;;;;5058800;28;20476;-79
2022/04/28 09:07:39;;;;;;;9.90;7.10;;;14.40;99.90;;;;;;5059029;28;20439;-79
2022/04/28 09:10:29;;;;;;;8.37;7.57;;;14.50;99.90;;;;;;5058781;28;20509;-79
2022/04/28 09:15:44;;;;;;;10.87;7.23;;;14.60;1.00;;;;;;5062021;28;20433;-78
2022/04/28 09:18:10;;;;;;;9.30;7.10;;;14.90;1.00;;;;;;5061075;28;20449;-79
2022/04/28 09:20:38;;;;;;;11.90;7.60;;;14.50;99.90;;;;;;5058600;28;20426;-79
2022/04/28 09:23:05;;;;;;;9.03;7.77;;;14.70;99.90;;;;;;5058591;28;20472;-79
2022/04/28 09:25:32;;;;;;;11.07;7.60;;;14.70;99.90;;;;;;5058573;28;20442;-78
2022/04/28 09:28:04;;;;;;;10.13;8.10;;;15.00;1.00;;;;;;5058309;28;20499;-79
2022/04/28 09:30:36;;;;;;;8.53;7.30;;;14.90;99.90;;;;;;5057896;28;20466;-79
2022/04/28 09:33:09;;;;;;;11.90;7.10;;;15.10;99.90;;;;;;5058349;28;20789;-78
2022/04/28 09:35:35;;;;;;;9.90;8.60;;;14.40;1.00;;;;;;5066618;28;20435;-78
2022/04/28 09:38:02;;;;;;;7.97;6.77;;;14.80;1.00;;;;;;5060300;28;20989;-79
2022/04/28 09:43:15;;;;;;;12.70;7.90;;;15.30;99.90;;;;;;5058111;28;20494;-79
2022/04/28 09:45:44;;;;;;;10.23;7.13;;;15.50;99.90;;;;;;5058702;28;20443;-78
2022/04/28 09:48:11;;;;;;;10.77;6.10;;;15.80;1.00;;;;;;5059701;28;20460;-78
2022/04/28 09:50:40;;;;;;;10.83;8.07;;;15.60;99.90;;;;;;5061631;28;20487;-83
2022/04/28 09:53:08;;;;;;;9.20;5.77;;;15.30;99.90;;;;;;5064174;28;20469;-79
2022/04/28 09:55:35;;;;;;;11.33;7.50;;;15.40;99.90;;;;;;5074514;28;20443;-80
2022/04/28 09:58:04;;;;;;;9.33;6.60;;;15.00;1.00;;;;;;5075616;28;20513;-81
2022/04/28 10:00:33;;;;;;;8.63;7.00;;;15.30;99.90;;;;;;5071671;28;20441;-81
2022/04/28 10:03:02;;;;;;;6.90;6.10;;;15.60;1.00;;;;;;5061662;28;20456;-81
2022/04/28 10:05:30;;;;;;;9.07;5.97;;;15.70;99.90;;;;;;5060833;28;20453;-81
2022/04/28 10:07:57;;;;;;;7.50;6.70;;;15.70;1.00;;;;;;5062709;28;20452;-81
2022/04/28 10:10:25;;;;;;;10.83;7.57;;;15.90;99.90;;;;;;5070675;28;20487;-80
2022/04/28 10:12:54;;;;;;;7.87;7.07;;;15.50;99.90;;;;;;5074531;28;20437;-80
2022/04/28 10:15:21;;;;;;;20.17;6.83;;;15.80;1.00;;;;;;5072870;28;20449;-81
2022/04/28 10:17:53;;;;;;;8.33;5.93;;;15.90;99.90;;;;;;5074003;28;20453;-81
2022/04/28 10:20:25;;;;;;;10.23;7.57;;;15.20;99.90;;;;;;5071644;28;20452;-80
2022/04/28 10:22:53;;;;;;;10.53;8.10;;;15.50;99.90;;;;;;5070440;28;20434;-81
2022/04/28 10:33:46;;;;;;;10.53;6.77;;;16.50;99.90;;;;;;5057570;28;20451;-77
2022/04/28 10:36:17;;;;;;;8.20;6.77;;;16.40;99.90;;;;;;5056455;28;20823;-78
2022/04/28 10:39:04;;;;;;;10.83;6.53;;;16.20;99.90;;;;;;5056144;28;20530;-78
2022/04/28 10:41:30;;;;;;;9.33;5.90;;;15.80;99.90;;;;;;5056012;28;20480;-78
2022/04/28 10:43:59;;;;;;;9.63;5.20;;;15.40;99.90;;;;;;5056267;28;20503;-79
2022/04/28 10:46:33;;;;;;;6.97;6.37;;;15.30;99.90;;;;;;5057061;28;20453;-79
2022/04/28 10:49:04;;;;;;;6.40;5.53;;;15.00;99.90;;;;;;5056645;28;20482;-79
2022/04/28 10:51:32;;;;;;;8.80;7.10;;;15.10;99.90;;;;;;5057650;28;20468;-78
2022/04/28 10:54:09;;;;;;;7.70;6.10;;;15.50;99.90;;;;;;5056646;28;20452;-80
2022/04/28 10:56:56;;;;;;;13.53;5.50;;;16.00;1.00;;;;;;5061444;28;20457;-77
2022/04/28 10:59:48;;;;;;;8.00;7.20;;;16.20;99.90;;;;;;5059753;28;20472;-78
2022/04/28 11:02:51;;;;;;;10.57;6.40;;;16.20;99.90;;;;;;5058972;28;20462;-78
2022/04/28 11:05:44;;;;;;;7.73;6.20;;;15.70;99.90;;;;;;5056004;28;20523;-78
2022/04/28 11:08:26;;;;;;;11.20;7.10;;;16.60;1.00;;;;;;5058651;28;20908;-79
2022/04/28 11:11:03;;;;;;;8.67;6.50;;;16.30;99.90;;;;;;5054712;28;20481;-78
2022/04/28 11:13:32;;;;;;;8.43;5.97;;;16.50;99.90;;;;;;5056612;28;20484;-77
2022/04/28 11:16:02;;;;;;;6.20;5.00;;;16.50;99.90;;;;;;5056046;28;20456;-79
2022/04/28 11:18:29;;;;;;;6.80;5.40;;;16.70;99.90;;;;;;5056122;28;21000;-79
2022/04/28 11:21:01;;;;;;;9.10;5.90;;;16.80;99.90;;;;;;5056390;28;20969;-79
2022/04/28 11:23:33;;;;;;;6.27;5.33;;;16.80;99.90;;;;;;5056123;28;20434;-79
2022/04/28 11:26:02;;;;;;;7.50;5.27;;;17.00;99.90;;;;;;5056726;28;20437;-79
2022/04/28 11:28:29;;;;;;;6.30;5.70;;;17.20;99.90;;;;;;5059119;28;20465;-79
2022/04/28 11:30:57;;;;;;;8.40;4.60;;;17.20;99.90;;;;;;5063288;28;20501;-79
2022/04/28 11:33:23;;;;;;;7.47;5.33;;;17.00;99.90;;;;;;5064452;28;20466;-78
2022/04/28 11:35:50;;;;;;;5.67;5.20;;;;;;;;;;5065241;28;20446;-78
2022/04/28 11:38:26;;;;;;;6.50;5.80;;;17.00;99.90;;;;;;5066256;28;20470;-78
2022/04/28 11:41:03;;;;;;;9.73;7.13;;;17.10;99.90;;;;;;5062545;28;20432;-79
2022/04/28 11:43:32;;;;;;;8.03;5.87;;;17.10;99.90;;;;;;5061993;28;20452;-79
2022/04/28 11:46:00;;;;;;;8.20;6.00;;;17.20;99.90;;;;;;5061130;28;20473;-79
2022/04/28 11:48:28;;;;;;;5.77;5.27;;;17.30;99.90;;;;;;5063641;28;20462;-78
2022/04/28 11:51:01;;;;;;;6.73;5.70;;;17.30;99.90;;;;;;5063131;28;20481;-79
2022/04/28 11:53:39;;;;;;;8.53;6.00;;;17.40;99.90;;;;;;5062620;28;20568;-79
2022/04/28 11:56:14;;;;;;;5.97;5.37;;;17.60;99.90;;;;;;5058879;28;20545;-79
2022/04/28 11:58:41;;;;;;;8.80;6.60;;;;;;;;;;5057915;28;20976;-79
2022/04/28 12:01:12;;;;;;;6.67;5.87;;;17.70;99.90;;;;;;5060976;28;20971;-79
2022/04/28 12:03:38;;;;;;;9.53;5.60;;;17.70;99.90;;;;;;5062043;28;20412;-79
2022/04/28 12:06:05;;;;;;;5.63;4.97;;;17.40;99.90;;;;;;5064378;28;20461;-78
2022/04/28 12:08:34;;;;;;;6.87;5.63;;;17.60;99.90;;;;;;5060941;28;20470;-78
2022/04/28 12:19:22;;;;;;;7.37;5.80;;;17.40;99.90;;;;;;5055069;28;20465;-79
2022/04/28 12:21:48;;;;;;;9.30;5.07;;;17.00;99.90;;;;;;5065760;28;20448;-77
2022/04/28 12:24:18;;;;;;;6.47;4.60;;;16.90;99.90;;;;;;5066422;28;20438;-78
2022/04/28 12:26:46;;;;;;;5.13;4.73;;;17.10;99.90;;;;;;5062122;28;20453;-80
2022/04/28 12:29:14;;;;;;;7.80;5.13;;;17.00;99.90;;;;;;5063094;28;20497;-79
2022/04/28 12:31:42;;;;;;;16.50;11.00;;;16.80;99.90;;;;;;5070263;28;20507;-78
2022/04/28 12:34:10;;;;;;;8.10;5.13;;;16.40;99.90;;;;;;5072208;28;20440;-78
2022/04/28 12:36:46;;;;;;;9.93;5.00;;;16.30;99.90;;;;;;5069362;28;20426;-79
2022/04/28 12:39:12;;;;;;;5.20;4.77;;;16.50;99.90;;;;;;5063913;28;20551;-79
2022/04/28 12:41:44;;;;;;;9.70;5.50;;;16.50;99.90;;;;;;5061973;28;21014;-79
2022/04/28 12:44:12;;;;;;;7.90;5.83;;;16.70;99.90;;;;;;5064284;28;20483;-79
2022/04/28 12:46:43;;;;;;;7.47;4.73;;;17.00;99.90;;;;;;5060870;28;21006;-79
2022/04/28 12:49:11;;;;;;;7.60;4.80;;;17.40;99.90;;;;;;5059869;28;20461;-80
2022/04/28 12:51:44;;;;;;;7.53;5.20;;;17.80;99.90;;;;;;5066351;28;20481;-77
2022/04/28 12:54:13;;;;;;;6.57;4.83;;;17.90;99.90;;;;;;5068591;28;20453;-78
2022/04/28 12:56:42;;;;;;;5.13;4.60;;;18.00;99.90;;;;;;5073213;28;20495;-78
2022/04/28 12:59:13;;;;;;;5.80;4.60;;;18.00;99.90;;;;;;5064446;28;20497;-80
2022/04/28 13:01:41;;;;;;;7.07;6.00;;;18.10;99.90;;;;;;5065794;28;20480;-78
2022/04/28 13:04:09;;;;;;;12.23;5.27;;;18.10;99.90;;;;;;5069401;28;20442;-78
2022/04/28 13:06:38;;;;;;;5.67;4.30;;;18.10;99.90;;;;;;5070580;28;20445;-79
2022/04/28 13:09:07;;;;;;;6.80;4.57;;;18.10;99.90;;;;;;5066312;28;20469;-78
2022/04/28 13:11:35;;;;;;;6.93;4.60;;;18.00;99.90;;;;;;5071699;28;20472;-79
2022/04/28 13:14:04;;;;;;;5.10;3.90;;;18.00;99.90;;;;;;5066422;28;20438;-78
2022/04/28 13:16:33;;;;;;;6.60;4.60;;;18.00;99.90;;;;;;5062056;28;20445;-79
2022/04/28 13:19:00;;;;;;;6.97;4.70;;;18.00;99.90;;;;;;5061280;28;20513;-78
2022/04/28 13:21:26;;;;;;;5.57;5.03;;;18.00;99.90;;;;;;5060782;28;21001;-80
2022/04/28 13:23:53;;;;;;;4.97;4.50;;;17.60;99.90;;;;;;5061441;28;20445;-79
2022/04/28 13:26:21;;;;;;;6.60;4.60;;;17.50;99.90;;;;;;5059483;28;20541;-78
2022/04/28 13:28:49;;;;;;;8.43;5.50;;;17.30;99.90;;;;;;5064826;28;20469;-78
2022/04/28 13:31:16;;;;;;;6.50;5.07;;;17.50;99.90;;;;;;5070628;28;20553;-78